Pittsburgh, PA (15222)

7:40 PM EDT on September 30, 2016 (GMT -0400)
Falk School WeatherSTEM | | Change Station

Elev 1158 ft 40.45 °N, 79.96 °W | Updated 2 minutes ago

Overcast
Overcast
57.2 °F
Feels Like 57.2 °F
N
3.0
Wind Variable Wind from SE

Today
High -- | Low -- °F
--% Chance of Precip.
Yesterday
High -- | Low -- °F
Precip. -- in
Pressure 30.11 in
Visibility 10.0 miles
Clouds Overcast 2200 ft
Dew Point 56 °F
Humidity 94%
Rainfall 0.36 in
Snow Depth Not available.
7:15 AM 7:02 PM
Waning Crescent, 0% visible
METAR KAGC 302253Z 06006KT 10SM OVC022 14/12 A3010 RMK AO2 RAE05 SLP196 P0000 T01440122
Pressure 30.11 in
Visibility 10.0 miles
Clouds Overcast 2200 ft
Dew Point 56 °F
Humidity 94%
Rainfall 0.36 in
Snow Depth Not available.
7:15 AM 7:02 PM
Waning Crescent, 0% visible
METAR KAGC 302253Z 06006KT 10SM OVC022 14/12 A3010 RMK AO2 RAE05 SLP196 P0000 T01440122

10-Day Weather Forecast

Almanac

Astronomy

Sep. 30, 2016 Rise Set
Actual Time
Civil Twilight
Nautical Twilight
Astronomical Twilight
Moon
Length of Visible Light
Length of Day
Tomorrow will be .
, % of the Moon is Illuminated

Today's Extremes

State Highs State Lows

Community

WunderPhotos

Upload Photos

1,942,819 photos uploaded!

WunderBlog® & News

Nearby

Air Quality

  Air Quality AQ Index Pollutant
Not available.

Snow Depth

Station Depth Elevation

Earthquake Activity

City Distance Mag. Time & Date
Minimum magnitude displayed is 2.5.

Coastal Water Temperatures

Place Temperature

Stations

Nearby Weather Stations

Station Location Temp. Windchill Dew Point Humidity Wind Precip. Elev Updated Type
                   

Watches & Warnings

There are currently no watches in effect.